createdAt,value
2024-03-02T00:00:28.498Z,97239.28
2024-03-02T00:03:16.980Z,97241.98
2024-03-02T00:05:49.849Z,97241.87
2024-03-02T00:08:26.028Z,97245.13
2024-03-02T00:10:59.029Z,97245.27
2024-03-02T00:13:28.544Z,97242.73
2024-03-02T00:15:59.906Z,97239.16
2024-03-02T00:18:36.760Z,97234.63
2024-03-02T00:21:07.673Z,97231.05
2024-03-02T00:23:36.365Z,97228.46
2024-03-02T00:26:05.071Z,97228.70
2024-03-02T00:28:36.388Z,97233.27
2024-03-02T00:31:08.911Z,97233.61
2024-03-02T00:33:41.680Z,97231.48
2024-03-02T00:36:11.854Z,97228.69
2024-03-02T00:38:51.583Z,97232.93
2024-03-02T00:41:31.688Z,97232.33
2024-03-02T00:44:09.511Z,97230.70
2024-03-02T00:46:42.167Z,97223.03
2024-03-02T00:49:22.096Z,97220.96
2024-03-02T00:51:52.802Z,97219.23
2024-03-02T00:54:27.058Z,97215.37
2024-03-02T00:56:57.337Z,97212.02
2024-03-02T00:59:26.960Z,97217.97
2024-03-02T01:01:55.384Z,97219.62
2024-03-02T01:04:23.886Z,97219.95
2024-03-02T01:06:52.408Z,97232.78
2024-03-02T01:09:20.681Z,97238.55
2024-03-02T01:11:49.226Z,97236.69
2024-03-02T01:14:17.403Z,97228.22
2024-03-02T01:16:45.806Z,97227.73
2024-03-02T01:19:14.185Z,97225.35
2024-03-02T01:21:42.525Z,97218.40
2024-03-02T01:24:10.954Z,97218.73
2024-03-02T01:26:39.157Z,97209.73
2024-03-02T01:29:07.783Z,97199.43
2024-03-02T01:31:36.857Z,97198.70
2024-03-02T01:34:05.084Z,97194.69
2024-03-02T01:36:33.232Z,97192.66
2024-03-02T01:39:02.123Z,97194.70
2024-03-02T01:41:30.366Z,97194.63
2024-03-02T01:43:58.560Z,97199.10
2024-03-02T01:46:26.853Z,97203.14
2024-03-02T01:48:55.044Z,97206.89
2024-03-02T01:51:23.243Z,97206.73
2024-03-02T01:53:51.682Z,97205.35
2024-03-02T01:56:20.030Z,97207.67
2024-03-02T01:58:48.245Z,97211.42
2024-03-02T02:01:18.067Z,97211.14
2024-03-02T02:03:46.849Z,97207.89
2024-03-02T02:06:15.065Z,97202.38
2024-03-02T02:08:43.262Z,97197.11
2024-03-02T02:11:11.490Z,97194.13
2024-03-02T02:13:39.640Z,97193.56
2024-03-02T02:16:10.973Z,97197.06
2024-03-02T02:18:39.276Z,97199.71
2024-03-02T02:21:07.929Z,97202.44
2024-03-02T02:23:36.743Z,97198.17
2024-03-02T02:26:05.032Z,97197.63
2024-03-02T02:28:34.605Z,97195.33
2024-03-02T02:31:03.915Z,97192.52
2024-03-02T02:33:32.229Z,97184.95
2024-03-02T02:36:00.620Z,97178.08
2024-03-02T02:38:28.875Z,97175.67
2024-03-02T02:40:57.066Z,97166.77
2024-03-02T02:43:25.198Z,97165.36
2024-03-02T02:45:53.490Z,97155.13
2024-03-02T02:48:21.867Z,97152.45
2024-03-02T02:50:50.353Z,97148.17
2024-03-02T02:53:18.626Z,97142.58
2024-03-02T02:55:46.743Z,97140.21
2024-03-02T02:58:15.973Z,97139.66
2024-03-02T03:00:44.700Z,97136.19
2024-03-02T03:03:12.977Z,97136.52
2024-03-02T03:05:41.241Z,97136.48
2024-03-02T03:08:09.373Z,97133.76
2024-03-02T03:10:38.047Z,97134.30
2024-03-02T03:13:09.419Z,97133.61
2024-03-02T03:15:38.001Z,97133.33
2024-03-02T03:18:06.284Z,97131.46
2024-03-02T03:20:35.233Z,97134.92
2024-03-02T03:23:05.349Z,97132.79
2024-03-02T03:25:33.412Z,97130.95
2024-03-02T03:28:02.955Z,97132.55
2024-03-02T03:30:31.063Z,97124.65
2024-03-02T03:32:59.175Z,97128.55
2024-03-02T03:35:27.362Z,97127.86
2024-03-02T03:37:55.591Z,97128.07
2024-03-02T03:40:24.534Z,97126.69
2024-03-02T03:42:53.148Z,97131.85
2024-03-02T03:45:22.303Z,97133.23
2024-03-02T03:47:50.778Z,97132.71
2024-03-02T03:50:19.139Z,97134.50
2024-03-02T03:52:47.298Z,97133.16
2024-03-02T03:55:16.287Z,97134.32
2024-03-02T03:57:44.372Z,97135.20
2024-03-02T04:00:13.342Z,97130.34
2024-03-02T04:02:41.934Z,97129.89
2024-03-02T04:05:12.618Z,97129.56
2024-03-02T04:07:42.023Z,97128.06
2024-03-02T04:10:11.870Z,97129.86
2024-03-02T04:12:40.344Z,97127.84
2024-03-02T04:15:08.869Z,97125.19
2024-03-02T04:17:37.813Z,97126.70
2024-03-02T04:20:07.009Z,97125.65
2024-03-02T04:22:36.629Z,97126.79
2024-03-02T04:25:06.112Z,97123.73
2024-03-02T04:27:34.946Z,97126.55
2024-03-02T04:30:04.904Z,97127.88
2024-03-02T04:32:33.103Z,97125.73
2024-03-02T04:35:01.263Z,97120.21
2024-03-02T04:37:29.429Z,97121.59
2024-03-02T04:39:57.622Z,97124.52
2024-03-02T04:42:25.956Z,97126.44
2024-03-02T04:44:54.263Z,97123.46
2024-03-02T04:47:22.434Z,97125.25
2024-03-02T04:49:50.604Z,97132.56
2024-03-02T04:52:18.897Z,97128.02
2024-03-02T04:55:05.607Z,97127.85
2024-03-02T04:57:33.680Z,97125.29
2024-03-02T05:00:02.190Z,97122.83
2024-03-02T05:02:30.343Z,97130.42
2024-03-02T05:04:58.578Z,97137.31
2024-03-02T05:07:26.767Z,97133.58
2024-03-02T05:09:55.228Z,97129.20
2024-03-02T05:12:42.278Z,97134.52
2024-03-02T05:15:12.002Z,97132.90
2024-03-02T05:17:41.892Z,97135.58
2024-03-02T05:20:11.025Z,97130.05
2024-03-02T05:22:40.858Z,97129.28
2024-03-02T05:25:13.101Z,97130.38
2024-03-02T05:27:41.384Z,97129.89
2024-03-02T05:30:10.464Z,97131.23
2024-03-02T05:32:38.880Z,97130.99
2024-03-02T05:35:07.505Z,97131.23
2024-03-02T05:37:35.806Z,97131.39
2024-03-02T05:40:04.483Z,97130.06
2024-03-02T05:42:32.736Z,97131.14
2024-03-02T05:45:01.032Z,97131.67
2024-03-02T05:47:29.549Z,97136.75
2024-03-02T05:49:57.892Z,97142.91
2024-03-02T05:52:26.846Z,97146.04
2024-03-02T05:54:55.164Z,97145.80
2024-03-02T05:57:49.068Z,97146.90
2024-03-02T06:00:18.687Z,97145.96
2024-03-02T06:02:47.413Z,97146.64
2024-03-02T06:05:17.997Z,97149.16
2024-03-02T06:07:46.790Z,97151.52
2024-03-02T06:10:15.844Z,97156.09
2024-03-02T06:12:44.689Z,97157.15
2024-03-02T06:15:13.005Z,97159.78
2024-03-02T06:17:41.295Z,97158.23
2024-03-02T06:20:10.585Z,97160.14
2024-03-02T06:22:39.710Z,97159.48
2024-03-02T06:25:08.535Z,97157.21
2024-03-02T06:27:37.061Z,97159.11
2024-03-02T06:30:05.979Z,97156.79
2024-03-02T06:32:34.464Z,97157.92
2024-03-02T06:35:06.149Z,97162.91
2024-03-02T06:37:34.329Z,97160.70
2024-03-02T06:40:02.750Z,97162.11
2024-03-02T06:42:34.928Z,97162.02
2024-03-02T06:45:04.565Z,97165.55
2024-03-02T06:47:33.052Z,97168.10
2024-03-02T06:50:01.814Z,97167.33
2024-03-02T06:52:30.060Z,97172.60
2024-03-02T06:55:00.212Z,97175.48
2024-03-02T06:57:28.578Z,97172.54
2024-03-02T06:59:59.939Z,97173.69
2024-03-02T07:02:28.530Z,97173.66
2024-03-02T07:04:57.255Z,97177.28
2024-03-02T07:07:25.460Z,97175.51
2024-03-02T07:09:54.113Z,97179.28
2024-03-02T07:12:22.463Z,97179.38
2024-03-02T07:15:17.504Z,97178.95
2024-03-02T07:17:45.742Z,97175.96
2024-03-02T07:20:14.512Z,97175.59
2024-03-02T07:22:44.926Z,97172.22
2024-03-02T07:27:45.437Z,97168.74
2024-03-02T07:30:20.098Z,97170.11
2024-03-02T07:32:52.011Z,97165.15
2024-03-02T07:35:20.395Z,97161.27
2024-03-02T07:37:48.983Z,97162.48
2024-03-02T07:40:17.293Z,97166.59
2024-03-02T07:42:46.818Z,97171.89
2024-03-02T07:45:15.310Z,97170.44
2024-03-02T07:47:43.564Z,97170.20
2024-03-02T07:50:11.912Z,97171.03
2024-03-02T07:52:40.240Z,97174.16
2024-03-02T07:55:08.619Z,97175.59
2024-03-02T07:57:37.146Z,97174.77
2024-03-02T08:00:07.292Z,97172.15
2024-03-02T08:02:41.585Z,97172.55
2024-03-02T08:05:10.009Z,97173.64
2024-03-02T08:07:38.520Z,97172.09
2024-03-02T08:10:08.294Z,97171.35
2024-03-02T08:12:36.732Z,97169.62
2024-03-02T08:15:05.434Z,97170.44
2024-03-02T08:17:35.976Z,97172.31
2024-03-02T08:20:08.108Z,97167.05
2024-03-02T08:22:38.293Z,97164.98
2024-03-02T08:25:09.729Z,97165.00
2024-03-02T08:27:41.215Z,97157.65
2024-03-02T08:30:12.044Z,97156.96
2024-03-02T08:32:41.872Z,97158.34
2024-03-02T08:35:10.416Z,97164.23
2024-03-02T08:37:41.176Z,97165.34
2024-03-02T08:40:10.100Z,97165.13
2024-03-02T08:42:38.405Z,97167.29
2024-03-02T08:45:08.131Z,97172.70
2024-03-02T08:47:36.602Z,97170.44
2024-03-02T08:50:06.440Z,97169.42
2024-03-02T08:52:37.264Z,97170.71
2024-03-02T08:55:06.268Z,97171.80
2024-03-02T08:57:35.154Z,97171.34
2024-03-02T09:00:04.096Z,97169.79
2024-03-02T09:02:33.056Z,97170.95
2024-03-02T09:05:02.157Z,97175.64
2024-03-02T09:07:30.290Z,97177.40
2024-03-02T09:09:58.708Z,97173.91
2024-03-02T09:12:27.580Z,97172.05
2024-03-02T09:14:55.761Z,97169.23
2024-03-02T09:17:24.369Z,97168.96
2024-03-02T09:19:54.133Z,97169.13
2024-03-02T09:22:24.596Z,97171.66
2024-03-02T09:24:52.997Z,97172.17
2024-03-02T09:27:21.530Z,97172.33
2024-03-02T09:29:52.943Z,97175.83
2024-03-02T09:32:21.251Z,97172.17
2024-03-02T09:34:50.641Z,97174.29
2024-03-02T09:37:18.912Z,97176.50
2024-03-02T09:39:47.480Z,97173.51
2024-03-02T09:42:15.866Z,97172.59
2024-03-02T09:44:44.657Z,97172.80
2024-03-02T09:47:12.903Z,97175.36
2024-03-02T09:49:42.103Z,97175.27
2024-03-02T09:52:12.058Z,97175.52
2024-03-02T09:54:41.946Z,97174.98
2024-03-02T09:57:10.974Z,97170.55
2024-03-02T09:59:39.348Z,97166.92
2024-03-02T10:02:08.792Z,97165.94
2024-03-02T10:04:37.240Z,97163.48
2024-03-02T10:07:16.237Z,97161.73
2024-03-02T10:09:50.353Z,97163.35
2024-03-02T10:12:20.109Z,97163.85
2024-03-02T10:14:50.221Z,97166.69
2024-03-02T10:17:19.387Z,97163.91
2024-03-02T10:19:47.689Z,97160.41
2024-03-02T10:22:16.868Z,97163.49
2024-03-02T10:24:47.422Z,97163.32
2024-03-02T10:27:24.855Z,97162.31
2024-03-02T10:29:53.476Z,97163.95
2024-03-02T10:32:24.165Z,97159.88
2024-03-02T10:34:53.317Z,97160.92
2024-03-02T10:37:23.251Z,97157.65
2024-03-02T10:39:54.040Z,97154.27
2024-03-02T10:42:24.059Z,97153.70
2024-03-02T10:44:54.866Z,97152.23
2024-03-02T10:47:24.767Z,97151.60
2024-03-02T10:49:56.599Z,97147.48
2024-03-02T10:52:25.859Z,97151.29
2024-03-02T10:54:54.361Z,97145.40
2024-03-02T10:57:34.036Z,97145.45
2024-03-02T11:00:04.845Z,97140.80
2024-03-02T11:02:36.957Z,97140.55
2024-03-02T11:05:28.366Z,97137.31
2024-03-02T11:08:05.949Z,97136.83
2024-03-02T11:10:53.747Z,97133.30
2024-03-02T11:13:32.367Z,97127.39
2024-03-02T11:16:11.594Z,97127.89
2024-03-02T11:18:41.655Z,97125.15
2024-03-02T11:21:11.070Z,97121.98
2024-03-02T11:23:39.539Z,97121.36
2024-03-02T11:26:20.210Z,97120.59
2024-03-02T11:28:53.657Z,97120.13
2024-03-02T11:31:22.155Z,97114.25
2024-03-02T11:33:51.093Z,97110.10
2024-03-02T11:36:22.228Z,97102.77
2024-03-02T11:38:55.054Z,97100.89
2024-03-02T11:41:23.432Z,97097.59
2024-03-02T11:43:53.525Z,97102.15
2024-03-02T11:46:23.544Z,97101.48
2024-03-02T11:48:51.752Z,97102.53
2024-03-02T11:51:20.114Z,97102.02
2024-03-02T11:53:51.420Z,97101.02
2024-03-02T11:56:20.964Z,97097.77
2024-03-02T11:58:50.504Z,97097.77
2024-03-02T12:01:24.803Z,97097.35
2024-03-02T12:03:56.838Z,97093.66
2024-03-02T12:06:27.781Z,97093.21
2024-03-02T12:08:56.600Z,97091.92
2024-03-02T12:11:27.759Z,97096.52
2024-03-02T12:13:56.437Z,97093.41
2024-03-02T12:16:26.405Z,97092.58
2024-03-02T12:18:56.055Z,97089.88
2024-03-02T12:21:24.877Z,97090.13
2024-03-02T12:23:53.789Z,97094.29
2024-03-02T12:26:23.558Z,97090.23
2024-03-02T12:28:55.160Z,97089.91
2024-03-02T12:31:23.766Z,97092.23
2024-03-02T12:33:52.395Z,97090.65
2024-03-02T12:36:21.569Z,97092.70
2024-03-02T12:38:50.249Z,97089.76
2024-03-02T12:41:18.643Z,97083.06
2024-03-02T12:43:46.918Z,97076.11
2024-03-02T12:46:15.810Z,97075.48
2024-03-02T12:48:46.613Z,97072.48
2024-03-02T12:51:16.558Z,97069.80
2024-03-02T12:53:45.466Z,97071.64
2024-03-02T12:56:17.628Z,97074.89
2024-03-02T12:58:45.943Z,97075.13
2024-03-02T13:01:16.729Z,97079.05
2024-03-02T13:03:45.187Z,97079.85
2024-03-02T13:06:13.777Z,97078.70
2024-03-02T13:08:42.527Z,97077.14
2024-03-02T13:11:11.594Z,97079.80
2024-03-02T13:13:41.735Z,97075.35
2024-03-02T13:16:13.665Z,97075.71
2024-03-02T13:18:42.620Z,97078.11
2024-03-02T13:21:11.704Z,97075.55
2024-03-02T13:23:40.232Z,97072.38
2024-03-02T13:26:08.899Z,97073.79
2024-03-02T13:28:37.252Z,97075.52
2024-03-02T13:31:05.939Z,97075.73
2024-03-02T13:33:34.589Z,97075.72
2024-03-02T13:36:04.591Z,97075.41
2024-03-02T13:38:32.808Z,97070.54
2024-03-02T13:41:02.402Z,97068.89
2024-03-02T13:43:33.373Z,97071.37
2024-03-02T13:46:03.689Z,97070.89
2024-03-02T13:48:32.615Z,97069.30
2024-03-02T13:51:00.808Z,97070.45
2024-03-02T13:53:29.732Z,97071.52
2024-03-02T13:55:59.319Z,97075.14
2024-03-02T13:58:28.290Z,97076.50
2024-03-02T14:00:57.950Z,97076.22
2024-03-02T14:03:31.324Z,97077.27
2024-03-02T14:06:00.158Z,97079.31
2024-03-02T14:08:28.498Z,97079.70
2024-03-02T14:10:59.486Z,97080.46
2024-03-02T14:13:28.667Z,97081.29
2024-03-02T14:15:56.988Z,97082.54
2024-03-02T14:18:28.176Z,97086.52
2024-03-02T14:20:59.784Z,97086.42
2024-03-02T14:23:30.974Z,97086.21
2024-03-02T14:26:00.427Z,97083.92
2024-03-02T14:28:43.967Z,97082.93
2024-03-02T14:31:19.221Z,97085.62
2024-03-02T14:33:48.752Z,97086.98
2024-03-02T14:36:18.278Z,97087.40
2024-03-02T14:38:47.066Z,97093.55
2024-03-02T14:41:15.559Z,97093.40
2024-03-02T14:43:44.058Z,97093.27
2024-03-02T14:46:15.588Z,97091.85
2024-03-02T14:48:45.577Z,97087.50
2024-03-02T14:51:15.742Z,97088.66
2024-03-02T14:53:44.010Z,97088.91
2024-03-02T14:56:15.061Z,97090.29
2024-03-02T14:58:43.769Z,97087.96
2024-03-02T15:01:13.573Z,97091.26
2024-03-02T15:03:44.278Z,97091.77
2024-03-02T15:06:12.630Z,97098.13
2024-03-02T15:08:42.770Z,97100.22
2024-03-02T15:11:12.057Z,97101.00
2024-03-02T15:13:40.720Z,97102.61
2024-03-02T15:16:09.771Z,97104.96
2024-03-02T15:18:38.832Z,97107.92
2024-03-02T15:21:07.283Z,97108.80
2024-03-02T15:23:36.042Z,97108.86
2024-03-02T15:26:04.857Z,97109.35
2024-03-02T15:28:34.339Z,97113.93
2024-03-02T15:31:02.486Z,97116.98
2024-03-02T15:33:33.140Z,97116.91
2024-03-02T15:36:02.976Z,97117.75
2024-03-02T15:38:34.571Z,97119.52
2024-03-02T15:41:06.082Z,97121.27
2024-03-02T15:43:37.237Z,97119.91
2024-03-02T15:46:05.613Z,97123.52
2024-03-02T15:48:34.205Z,97123.15
2024-03-02T15:51:06.766Z,97126.52
2024-03-02T15:53:37.285Z,97130.85
2024-03-02T15:56:09.485Z,97132.09
2024-03-02T15:58:39.813Z,97128.48
2024-03-02T16:01:10.696Z,97131.42
2024-03-02T16:03:39.437Z,97131.13
2024-03-02T16:06:07.898Z,97134.27
2024-03-02T16:08:36.322Z,97132.91
2024-03-02T16:11:06.118Z,97137.34
2024-03-02T16:13:34.411Z,97134.99
2024-03-02T16:16:03.214Z,97135.48
2024-03-02T16:18:31.885Z,97137.02
2024-03-02T16:21:00.831Z,97138.00
2024-03-02T16:23:29.280Z,97138.08
2024-03-02T16:25:58.161Z,97135.08
2024-03-02T16:28:26.842Z,97139.67
2024-03-02T16:30:55.700Z,97146.80
2024-03-02T16:33:25.395Z,97148.63
2024-03-02T16:35:53.835Z,97144.73
2024-03-02T16:38:23.336Z,97145.48
2024-03-02T16:40:52.213Z,97145.45
2024-03-02T16:43:21.258Z,97144.27
2024-03-02T16:45:49.697Z,97147.23
2024-03-02T16:48:18.883Z,97147.14
2024-03-02T16:50:47.493Z,97151.63
2024-03-02T16:53:17.100Z,97153.05
2024-03-02T16:55:45.324Z,97156.13
2024-03-02T16:58:13.715Z,97161.09
2024-03-02T17:00:42.299Z,97163.61
2024-03-02T17:03:10.484Z,97166.45
2024-03-02T17:05:40.149Z,97163.73
2024-03-02T17:08:08.330Z,97162.52
2024-03-02T17:10:38.636Z,97162.48
2024-03-02T17:13:07.089Z,97162.49
2024-03-02T17:15:35.782Z,97161.13
2024-03-02T17:18:04.509Z,97156.89
2024-03-02T17:20:32.746Z,97158.94
2024-03-02T17:23:01.240Z,97160.33
2024-03-02T17:25:29.648Z,97162.61
2024-03-02T17:28:29.583Z,97165.30
2024-03-02T17:30:58.975Z,97163.21
2024-03-02T17:33:27.491Z,97167.95
2024-03-02T17:35:58.767Z,97167.61
2024-03-02T17:38:27.362Z,97168.37
2024-03-02T17:40:55.750Z,97169.42
2024-03-02T17:43:25.559Z,97165.48
2024-03-02T17:45:57.583Z,97162.02
2024-03-02T17:48:26.622Z,97163.64
2024-03-02T17:50:55.322Z,97164.30
2024-03-02T17:53:23.852Z,97162.05
2024-03-02T17:55:53.997Z,97163.29
2024-03-02T17:58:23.316Z,97162.64
2024-03-02T18:00:53.470Z,97159.70
2024-03-02T18:03:23.073Z,97157.86
2024-03-02T18:05:51.434Z,97157.23
2024-03-02T18:08:20.398Z,97156.32
2024-03-02T18:10:49.087Z,97153.91
2024-03-02T18:13:17.617Z,97156.59
2024-03-02T18:15:51.224Z,97158.41
2024-03-02T18:18:20.297Z,97154.47
2024-03-02T18:20:50.129Z,97160.61
2024-03-02T18:23:18.416Z,97159.22
2024-03-02T18:25:49.913Z,97163.98
2024-03-02T18:28:18.259Z,97162.81
2024-03-02T18:30:46.654Z,97160.86
2024-03-02T18:33:17.546Z,97161.86
2024-03-02T18:35:45.722Z,97159.23
2024-03-02T18:38:13.919Z,97160.71
2024-03-02T18:40:55.951Z,97167.95
2024-03-02T18:43:26.649Z,97167.73
2024-03-02T18:45:56.784Z,97172.40
2024-03-02T18:48:26.996Z,97169.18
2024-03-02T18:50:55.574Z,97168.52
2024-03-02T18:53:24.174Z,97169.66
2024-03-02T18:55:52.704Z,97168.79
2024-03-02T18:58:21.376Z,97165.25
2024-03-02T19:00:51.750Z,97165.23
2024-03-02T19:03:20.209Z,97166.72
2024-03-02T19:05:49.093Z,97167.48
2024-03-02T19:08:20.715Z,97170.14
2024-03-02T19:10:50.254Z,97174.39
2024-03-02T19:13:18.527Z,97177.13
2024-03-02T19:15:49.677Z,97179.61
2024-03-02T19:18:18.918Z,97177.77
2024-03-02T19:20:47.596Z,97180.67
2024-03-02T19:23:21.865Z,97180.35
2024-03-02T19:26:00.109Z,97179.57
2024-03-02T19:28:28.684Z,97180.99
2024-03-02T19:30:57.089Z,97181.63
2024-03-02T19:33:26.663Z,97183.06
2024-03-02T19:36:01.013Z,97183.65
2024-03-02T19:38:29.537Z,97189.48
2024-03-02T19:40:58.604Z,97191.27
2024-03-02T19:43:26.767Z,97185.88
2024-03-02T19:45:55.341Z,97187.23
2024-03-02T19:48:23.933Z,97187.89
2024-03-02T19:50:54.485Z,97188.38
2024-03-02T19:53:22.831Z,97190.28
2024-03-02T19:55:51.019Z,97193.26
2024-03-02T19:58:19.662Z,97192.54
2024-03-02T20:00:48.247Z,97196.36
2024-03-02T20:03:16.450Z,97195.92
2024-03-02T20:05:45.515Z,97197.06
2024-03-02T20:08:14.403Z,97199.87
2024-03-02T20:10:44.579Z,97205.07
2024-03-02T20:13:17.163Z,97207.58
2024-03-02T20:15:45.622Z,97206.20
2024-03-02T20:18:14.327Z,97207.10
2024-03-02T20:20:42.536Z,97209.41
2024-03-02T20:23:11.808Z,97212.38
2024-03-02T20:25:40.339Z,97213.91
2024-03-02T20:28:08.706Z,97212.23
2024-03-02T20:30:37.240Z,97212.17
2024-03-02T20:33:06.480Z,97214.67
2024-03-02T20:35:37.280Z,97215.39
2024-03-02T20:38:05.839Z,97215.89
2024-03-02T20:40:34.666Z,97216.91
2024-03-02T20:43:04.515Z,97219.81
2024-03-02T20:45:32.919Z,97222.44
2024-03-02T20:48:01.049Z,97224.83
2024-03-02T20:50:29.774Z,97226.39
2024-03-02T20:53:03.100Z,97228.94
2024-03-02T20:55:31.409Z,97232.70
2024-03-02T20:57:59.711Z,97233.00
2024-03-02T21:00:27.901Z,97236.39
2024-03-02T21:02:56.274Z,97233.21
2024-03-02T21:05:25.156Z,97232.00
2024-03-02T21:07:53.429Z,97233.12
2024-03-02T21:10:22.649Z,97232.21
2024-03-02T21:12:50.940Z,97229.90
2024-03-02T21:15:19.624Z,97227.98
2024-03-02T21:17:47.876Z,97228.05
2024-03-02T21:20:16.138Z,97229.66
2024-03-02T21:22:48.570Z,97226.84
2024-03-02T21:25:21.290Z,97226.54
2024-03-02T21:27:50.137Z,97226.89
2024-03-02T21:30:19.652Z,97230.69
2024-03-02T21:32:49.866Z,97231.63
2024-03-02T21:35:20.311Z,97234.96
2024-03-02T21:37:51.802Z,97234.46
2024-03-02T21:40:20.582Z,97235.77
2024-03-02T21:42:49.816Z,97237.38
2024-03-02T21:45:18.721Z,97237.65
2024-03-02T21:47:48.023Z,97237.48
2024-03-02T21:50:17.761Z,97241.62
2024-03-02T21:52:47.359Z,97242.39
2024-03-02T21:55:16.971Z,97237.34
2024-03-02T21:57:45.811Z,97234.52
2024-03-02T22:00:15.309Z,97234.23
2024-03-02T22:02:43.621Z,97231.48
2024-03-02T22:05:12.073Z,97234.61
2024-03-02T22:07:40.584Z,97234.07
2024-03-02T22:10:09.316Z,97241.48
2024-03-02T22:12:37.748Z,97241.36
2024-03-02T22:15:06.171Z,97243.60
2024-03-02T22:17:35.879Z,97248.48
2024-03-02T22:20:05.133Z,97250.56
2024-03-02T22:22:33.400Z,97248.70
2024-03-02T22:25:03.124Z,97249.15
2024-03-02T22:27:32.038Z,97252.02
2024-03-02T22:30:00.320Z,97250.80
2024-03-02T22:32:29.206Z,97250.88
2024-03-02T22:34:57.548Z,97254.27
2024-03-02T22:37:25.756Z,97254.81
2024-03-02T22:39:54.581Z,97254.57
2024-03-02T22:42:23.826Z,97254.38
2024-03-02T22:44:53.400Z,97256.73
2024-03-02T22:47:21.584Z,97256.59
2024-03-02T22:49:50.581Z,97252.80
2024-03-02T22:52:18.860Z,97254.14
2024-03-02T22:54:47.609Z,97255.61
2024-03-02T22:57:19.022Z,97256.79
2024-03-02T22:59:53.401Z,97260.66
2024-03-02T23:02:21.720Z,97261.39
2024-03-02T23:04:49.966Z,97260.35
2024-03-02T23:07:20.932Z,97259.14
2024-03-02T23:09:50.589Z,97261.09
2024-03-02T23:12:19.449Z,97261.11
2024-03-02T23:14:47.734Z,97259.27
2024-03-02T23:17:16.283Z,97261.84
2024-03-02T23:19:44.455Z,97260.27
2024-03-02T23:22:14.386Z,97261.21
2024-03-02T23:24:42.929Z,97258.97
2024-03-02T23:27:10.983Z,97263.23
2024-03-02T23:29:41.390Z,97263.06
2024-03-02T23:32:09.520Z,97263.98
2024-03-02T23:34:37.701Z,97262.88
2024-03-02T23:37:06.356Z,97263.46
2024-03-02T23:39:55.072Z,97267.23
2024-03-02T23:42:23.283Z,97265.94
2024-03-02T23:44:51.418Z,97266.34
2024-03-02T23:47:19.589Z,97263.83
2024-03-02T23:49:48.363Z,97267.58
2024-03-02T23:52:16.738Z,97265.27
2024-03-02T23:54:45.083Z,97262.59
2024-03-02T23:57:13.845Z,97266.86
2024-03-02T23:59:42.528Z,97260.77
